createdAt,value
2022-10-05T00:01:30.389Z,100856.72
2022-10-05T00:04:11.365Z,100857.77
2022-10-05T00:06:39.548Z,100864.68
2022-10-05T00:09:18.073Z,100866.10
2022-10-05T00:11:46.948Z,100861.31
2022-10-05T00:14:18.690Z,100864.11
2022-10-05T00:16:47.806Z,100860.43
2022-10-05T00:19:34.062Z,100864.27
2022-10-05T00:22:10.782Z,100858.52
2022-10-05T00:24:39.270Z,100856.48
2022-10-05T00:27:13.078Z,100846.41
2022-10-05T00:29:45.041Z,100840.00
2022-10-05T00:32:13.919Z,100837.58
2022-10-05T00:34:43.454Z,100829.98
2022-10-05T00:37:12.068Z,100816.92
2022-10-05T00:39:41.617Z,100817.30
2022-10-05T00:42:26.075Z,100819.02
2022-10-05T00:45:13.701Z,100814.55
2022-10-05T00:47:41.767Z,100812.33
2022-10-05T00:50:47.645Z,100818.40
2022-10-05T00:53:31.134Z,100814.62
2022-10-05T00:56:14.389Z,100815.67
2022-10-05T00:59:22.773Z,100815.39
2022-10-05T01:02:24.585Z,100812.88
2022-10-05T01:05:02.985Z,100808.48
2022-10-05T01:07:50.301Z,100802.92
2022-10-05T01:10:42.896Z,100792.80
2022-10-05T01:13:30.484Z,100792.92
2022-10-05T01:16:10.887Z,100789.77
2022-10-05T01:19:20.586Z,100790.45
2022-10-05T01:22:00.231Z,100788.67
2022-10-05T01:24:45.248Z,100791.05
2022-10-05T01:27:49.023Z,100790.80
2022-10-05T01:30:22.193Z,100782.05
2022-10-05T01:33:11.326Z,100781.35
2022-10-05T01:36:02.575Z,100785.64
2022-10-05T01:38:36.483Z,100790.83
2022-10-05T01:41:46.104Z,100794.11
2022-10-05T01:44:25.887Z,100792.77
2022-10-05T01:47:00.257Z,100788.46
2022-10-05T01:49:47.229Z,100788.48
2022-10-05T01:52:43.925Z,100788.43
2022-10-05T01:55:21.279Z,100777.20
2022-10-05T01:58:16.820Z,100790.21
2022-10-05T02:00:52.455Z,100783.12
2022-10-05T02:03:38.283Z,100783.31
2022-10-05T02:06:16.225Z,100790.80
2022-10-05T02:08:49.862Z,100793.06
2022-10-05T02:11:19.304Z,100793.45
2022-10-05T02:14:10.751Z,100801.85
2022-10-05T02:16:42.216Z,100797.98
2022-10-05T02:19:35.980Z,100803.16
2022-10-05T02:22:17.976Z,100798.89
2022-10-05T02:24:53.289Z,100790.30
2022-10-05T02:27:28.479Z,100784.47
2022-10-05T02:30:03.071Z,100782.10
2022-10-05T02:33:09.891Z,100775.66
2022-10-05T02:35:38.073Z,100770.02
2022-10-05T02:38:11.974Z,100764.83
2022-10-05T02:41:06.193Z,100762.57
2022-10-05T02:43:40.890Z,100763.03
2022-10-05T02:46:29.197Z,100762.20
2022-10-05T02:49:12.683Z,100762.44
2022-10-05T02:52:14.675Z,100760.78
2022-10-05T02:55:15.947Z,100766.86
2022-10-05T02:58:12.314Z,100766.91
2022-10-05T03:00:55.600Z,100768.45
2022-10-05T03:03:38.252Z,100768.50
2022-10-05T03:06:25.895Z,100767.10
2022-10-05T03:08:59.915Z,100762.89
2022-10-05T03:11:50.473Z,100761.73
2022-10-05T03:14:27.992Z,100757.33
2022-10-05T03:17:14.561Z,100759.33
2022-10-05T03:19:59.884Z,100755.28
2022-10-05T03:22:56.797Z,100750.24
2022-10-05T03:25:39.337Z,100747.86
2022-10-05T03:28:22.222Z,100742.30
2022-10-05T03:30:59.505Z,100736.48
2022-10-05T03:33:35.602Z,100733.67
2022-10-05T03:36:07.052Z,100737.55
2022-10-05T03:39:00.934Z,100731.00
2022-10-05T03:41:43.338Z,100732.02
2022-10-05T03:44:24.390Z,100726.64
2022-10-05T03:46:58.634Z,100730.05
2022-10-05T03:49:50.147Z,100740.77
2022-10-05T03:52:39.137Z,100737.27
2022-10-05T03:55:31.865Z,100734.84
2022-10-05T03:58:15.095Z,100747.36
2022-10-05T04:00:54.211Z,100754.30
2022-10-05T04:03:49.329Z,100751.98
2022-10-05T04:06:25.025Z,100754.69
2022-10-05T04:09:06.088Z,100745.44
2022-10-05T04:11:40.434Z,100742.90
2022-10-05T04:14:28.714Z,100733.61
2022-10-05T04:17:04.612Z,100729.87
2022-10-05T04:20:00.908Z,100718.05
2022-10-05T04:22:37.477Z,100731.83
2022-10-05T04:25:24.281Z,100741.05
2022-10-05T04:28:11.854Z,100737.67
2022-10-05T04:30:45.057Z,100739.49
2022-10-05T04:33:13.999Z,100730.09
2022-10-05T04:36:15.924Z,100731.23
2022-10-05T04:39:02.885Z,100728.73
2022-10-05T04:42:04.947Z,100721.55
2022-10-05T04:44:42.539Z,100710.16
2022-10-05T04:47:14.254Z,100711.91
2022-10-05T04:50:13.298Z,100726.17
2022-10-05T04:53:34.104Z,100729.33
2022-10-05T04:56:39.368Z,100719.48
2022-10-05T04:59:49.005Z,100709.59
2022-10-05T05:02:33.408Z,100706.04
2022-10-05T05:05:01.846Z,100705.06
2022-10-05T05:07:50.282Z,100707.56
2022-10-05T05:10:49.398Z,100715.13
2022-10-05T05:13:25.746Z,100719.98
2022-10-05T05:15:57.260Z,100723.33
2022-10-05T05:18:50.341Z,100718.70
2022-10-05T05:21:58.246Z,100720.09
2022-10-05T05:24:55.021Z,100719.28
2022-10-05T05:27:32.296Z,100716.84
2022-10-05T05:30:14.109Z,100718.89
2022-10-05T05:33:06.637Z,100719.59
2022-10-05T05:36:05.947Z,100714.13
2022-10-05T05:38:48.456Z,100717.50
2022-10-05T05:41:29.521Z,100721.98
2022-10-05T05:44:22.853Z,100727.41
2022-10-05T05:47:05.445Z,100735.55
2022-10-05T05:49:53.119Z,100740.80
2022-10-05T05:52:49.772Z,100746.70
2022-10-05T05:55:30.491Z,100744.59
2022-10-05T05:58:28.309Z,100748.70
2022-10-05T06:01:16.388Z,100745.16
2022-10-05T06:03:58.040Z,100743.15
2022-10-05T06:06:31.505Z,100745.33
2022-10-05T06:09:11.789Z,100750.64
2022-10-05T06:11:54.263Z,100749.08
2022-10-05T06:14:25.960Z,100749.67
2022-10-05T06:17:03.555Z,100741.63
2022-10-05T06:19:36.821Z,100751.55
2022-10-05T06:22:25.785Z,100754.57
2022-10-05T06:25:17.841Z,100757.78
2022-10-05T06:28:11.497Z,100761.68
2022-10-05T06:31:02.957Z,100764.82
2022-10-05T06:33:46.278Z,100769.17
2022-10-05T06:36:22.642Z,100769.52
2022-10-05T06:39:12.946Z,100767.37
2022-10-05T06:42:05.729Z,100768.52
2022-10-05T06:45:20.345Z,100766.45
2022-10-05T06:48:10.218Z,100774.05
2022-10-05T06:51:12.023Z,100776.20
2022-10-05T06:53:48.184Z,100778.58
2022-10-05T06:56:57.298Z,100774.84
2022-10-05T06:59:51.395Z,100772.36
2022-10-05T07:02:30.038Z,100769.30
2022-10-05T07:05:10.857Z,100770.70
2022-10-05T07:07:59.930Z,100764.70
2022-10-05T07:10:44.172Z,100762.71
2022-10-05T07:13:40.624Z,100769.73
2022-10-05T07:16:32.166Z,100767.39
2022-10-05T07:19:26.494Z,100768.27
2022-10-05T07:22:30.536Z,100773.29
2022-10-05T07:25:35.471Z,100777.03
2022-10-05T07:28:15.726Z,100775.45
2022-10-05T07:31:09.954Z,100776.60
2022-10-05T07:33:51.904Z,100777.27
2022-10-05T07:36:55.950Z,100778.73
2022-10-05T07:39:58.537Z,100777.33
2022-10-05T07:42:52.029Z,100778.38
2022-10-05T07:45:25.410Z,100775.50
2022-10-05T07:48:01.932Z,100771.65
2022-10-05T07:51:03.610Z,100769.38
2022-10-05T07:53:40.066Z,100767.60
2022-10-05T07:56:21.647Z,100765.80
2022-10-05T07:59:03.392Z,100767.95
2022-10-05T08:01:37.713Z,100763.02
2022-10-05T08:04:20.880Z,100761.92
2022-10-05T08:06:53.971Z,100758.72
2022-10-05T08:09:30.095Z,100758.16
2022-10-05T08:12:31.324Z,100761.29
2022-10-05T08:15:25.902Z,100763.66
2022-10-05T08:18:01.837Z,100756.44
2022-10-05T08:20:37.170Z,100740.70
2022-10-05T08:23:19.739Z,100751.33
2022-10-05T08:26:07.608Z,100750.98
2022-10-05T08:28:38.952Z,100752.48
2022-10-05T08:31:30.220Z,100750.63
2022-10-05T08:34:21.315Z,100754.41
2022-10-05T08:37:08.880Z,100753.38
2022-10-05T08:39:49.487Z,100753.31
2022-10-05T08:42:27.158Z,100749.40
2022-10-05T08:44:59.170Z,100741.61
2022-10-05T08:47:46.790Z,100740.62
2022-10-05T08:50:35.446Z,100743.70
2022-10-05T08:53:23.173Z,100744.45
2022-10-05T08:56:28.423Z,100746.11
2022-10-05T08:59:22.082Z,100745.90
2022-10-05T09:02:00.213Z,100739.52
2022-10-05T09:04:41.582Z,100743.81
2022-10-05T09:07:24.096Z,100743.96
2022-10-05T09:10:17.870Z,100740.83
2022-10-05T09:12:59.141Z,100743.02
2022-10-05T09:16:04.680Z,100743.29
2022-10-05T09:18:52.438Z,100745.44
2022-10-05T09:21:35.546Z,100745.05
2022-10-05T09:24:09.070Z,100750.88
2022-10-05T09:26:52.614Z,100753.21
2022-10-05T09:29:46.465Z,100749.33
2022-10-05T09:32:52.590Z,100751.13
2022-10-05T09:35:49.846Z,100763.32
2022-10-05T09:38:25.175Z,100765.02
2022-10-05T09:41:12.496Z,100757.56
2022-10-05T09:43:55.900Z,100758.98
2022-10-05T09:46:45.944Z,100757.33
2022-10-05T09:49:52.566Z,100751.44
2022-10-05T09:52:46.382Z,100741.02
2022-10-05T09:55:21.815Z,100746.41
2022-10-05T09:58:12.787Z,100744.52
2022-10-05T10:01:39.425Z,100731.05
2022-10-05T10:04:26.132Z,100737.59
2022-10-05T10:07:15.785Z,100736.35
2022-10-05T10:09:54.000Z,100733.48
2022-10-05T10:12:31.830Z,100729.25
2022-10-05T10:15:38.756Z,100719.42
2022-10-05T10:18:25.999Z,100724.61
2022-10-05T10:21:18.763Z,100715.99
2022-10-05T10:24:00.479Z,100714.41
2022-10-05T10:27:18.118Z,100710.64
2022-10-05T10:30:09.943Z,100709.92
2022-10-05T10:33:13.974Z,100704.27
2022-10-05T10:35:57.775Z,100700.41
2022-10-05T10:38:36.873Z,100698.59
2022-10-05T10:41:08.533Z,100701.61
2022-10-05T10:43:37.132Z,100707.65
2022-10-05T10:46:12.671Z,100709.25
2022-10-05T10:49:03.849Z,100710.05
2022-10-05T10:51:53.327Z,100705.16
2022-10-05T10:54:25.106Z,100700.40
2022-10-05T10:57:03.879Z,100701.81
2022-10-05T10:59:44.555Z,100703.09
2022-10-05T11:02:25.685Z,100702.82
2022-10-05T11:05:15.476Z,100703.68
2022-10-05T11:08:08.707Z,100700.38
2022-10-05T11:10:59.080Z,100694.63
2022-10-05T11:13:42.505Z,100696.70
2022-10-05T11:16:23.083Z,100694.70
2022-10-05T11:19:39.943Z,100696.15
2022-10-05T11:22:51.886Z,100686.67
2022-10-05T11:25:56.138Z,100676.90
2022-10-05T11:28:52.156Z,100662.39
2022-10-05T11:31:35.776Z,100667.33
2022-10-05T11:34:10.256Z,100666.33
2022-10-05T11:37:03.486Z,100665.40
2022-10-05T11:39:56.192Z,100665.38
2022-10-05T11:42:36.752Z,100668.30
2022-10-05T11:45:25.080Z,100657.11
2022-10-05T11:48:11.172Z,100646.65
2022-10-05T11:51:10.393Z,100639.73
2022-10-05T11:53:48.061Z,100633.84
2022-10-05T11:59:26.805Z,100630.48
2022-10-05T12:02:18.366Z,100631.86
2022-10-05T12:05:21.469Z,100635.45
2022-10-05T12:07:52.826Z,100635.45
2022-10-05T12:10:44.978Z,100629.35
2022-10-05T12:13:37.939Z,100631.27
2022-10-05T12:16:27.119Z,100624.81
2022-10-05T12:19:03.475Z,100622.91
2022-10-05T12:21:34.031Z,100619.91
2022-10-05T12:24:07.260Z,100623.95
2022-10-05T12:26:55.636Z,100620.67
2022-10-05T12:29:41.278Z,100617.70
2022-10-05T12:32:29.590Z,100614.52
2022-10-05T12:35:36.205Z,100613.63
2022-10-05T12:38:19.781Z,100610.14
2022-10-05T12:41:08.534Z,100612.13
2022-10-05T12:44:04.234Z,100610.91
2022-10-05T12:46:46.795Z,100610.29
2022-10-05T12:49:36.235Z,100614.41
2022-10-05T12:52:32.523Z,100617.00
2022-10-05T12:55:12.994Z,100621.95
2022-10-05T12:58:19.780Z,100621.41
2022-10-05T13:00:57.580Z,100622.83
2022-10-05T13:03:33.872Z,100619.60
2022-10-05T13:06:17.175Z,100620.64
2022-10-05T13:08:45.888Z,100617.64
2022-10-05T13:11:33.114Z,100617.93
2022-10-05T13:14:43.366Z,100610.89
2022-10-05T13:17:37.642Z,100609.80
2022-10-05T13:20:34.003Z,100608.19
2022-10-05T13:23:08.295Z,100604.83
2022-10-05T13:25:49.105Z,100606.48
2022-10-05T13:28:37.765Z,100601.09
2022-10-05T13:31:14.432Z,100600.66
2022-10-05T13:33:48.689Z,100598.03
2022-10-05T13:36:17.385Z,100595.73
2022-10-05T13:39:29.265Z,100588.95
2022-10-05T13:42:15.415Z,100593.30
2022-10-05T13:45:17.019Z,100593.32
2022-10-05T13:48:22.674Z,100587.38
2022-10-05T13:51:08.923Z,100573.84
2022-10-05T13:53:53.317Z,100579.60
2022-10-05T13:56:26.134Z,100578.93
2022-10-05T13:59:16.447Z,100583.16
2022-10-05T14:02:12.733Z,100583.59
2022-10-05T14:04:47.139Z,100584.05
2022-10-05T14:07:30.305Z,100581.59
2022-10-05T14:09:59.870Z,100578.09
2022-10-05T14:12:28.944Z,100572.52
2022-10-05T14:14:58.866Z,100575.08
2022-10-05T14:17:33.445Z,100569.73
2022-10-05T14:20:17.451Z,100569.20
2022-10-05T14:22:53.532Z,100560.64
2022-10-05T14:25:23.024Z,100565.97
2022-10-05T14:28:30.897Z,100567.94
2022-10-05T14:31:12.507Z,100567.74
2022-10-05T14:33:44.329Z,100570.14
2022-10-05T14:36:34.151Z,100569.84
2022-10-05T14:39:05.618Z,100570.89
2022-10-05T14:41:37.811Z,100563.33
2022-10-05T14:44:09.615Z,100559.39
2022-10-05T14:46:40.360Z,100556.77
2022-10-05T14:49:21.510Z,100553.36
2022-10-05T14:51:51.764Z,100546.96
2022-10-05T14:54:57.667Z,100549.48
2022-10-05T14:57:57.504Z,100547.84
2022-10-05T15:00:31.448Z,100539.71
2022-10-05T15:03:10.361Z,100535.73
2022-10-05T15:06:01.731Z,100531.14
2022-10-05T15:08:50.391Z,100523.44
2022-10-05T15:11:52.849Z,100522.98
2022-10-05T15:14:26.540Z,100525.44
2022-10-05T15:17:02.939Z,100530.48
2022-10-05T15:19:37.807Z,100532.63
2022-10-05T15:22:42.093Z,100532.08
2022-10-05T15:25:38.152Z,100523.21
2022-10-05T15:28:34.365Z,100523.41
2022-10-05T15:31:10.411Z,100523.36
2022-10-05T15:33:50.568Z,100524.31
2022-10-05T15:36:36.140Z,100517.55
2022-10-05T15:39:20.157Z,100517.49
2022-10-05T15:42:35.332Z,100518.39
2022-10-05T15:45:11.711Z,100510.98
2022-10-05T15:47:42.782Z,100507.46
2022-10-05T15:50:14.504Z,100508.98
2022-10-05T15:53:10.400Z,100505.27
2022-10-05T15:55:59.704Z,100504.13
2022-10-05T15:59:25.284Z,100504.79
2022-10-05T16:02:01.100Z,100509.79
2022-10-05T16:04:47.553Z,100507.50
2022-10-05T16:07:50.768Z,100512.48
2022-10-05T16:10:24.248Z,100515.91
2022-10-05T16:13:22.490Z,100514.15
2022-10-05T16:16:02.424Z,100517.29
2022-10-05T16:18:50.988Z,100512.30
2022-10-05T16:21:53.186Z,100526.89
2022-10-05T16:24:50.692Z,100523.66
2022-10-05T16:27:20.896Z,100525.66
2022-10-05T16:30:02.473Z,100529.88
2022-10-05T16:32:38.538Z,100520.27
2022-10-05T16:35:36.541Z,100525.98
2022-10-05T16:38:19.834Z,100531.23
2022-10-05T16:41:03.888Z,100533.17
2022-10-05T16:43:58.300Z,100535.91
2022-10-05T16:46:40.144Z,100533.96
2022-10-05T16:49:20.780Z,100524.81
2022-10-05T16:51:59.163Z,100534.27
2022-10-05T16:54:56.945Z,100530.66
2022-10-05T16:57:41.510Z,100528.55
2022-10-05T17:00:26.139Z,100531.83
2022-10-05T17:02:59.189Z,100529.25
2022-10-05T17:06:01.488Z,100537.21
2022-10-05T17:08:49.489Z,100539.39
2022-10-05T17:11:36.460Z,100538.27
2022-10-05T17:14:16.146Z,100546.02
2022-10-05T17:16:51.537Z,100543.09
2022-10-05T17:19:22.632Z,100535.36
2022-10-05T17:22:27.257Z,100543.91
2022-10-05T17:25:07.500Z,100525.10
2022-10-05T17:28:17.471Z,100535.70
2022-10-05T17:30:50.480Z,100533.33
2022-10-05T17:33:32.862Z,100532.86
2022-10-05T17:36:05.137Z,100528.23
2022-10-05T17:38:35.140Z,100529.69
2022-10-05T17:41:16.420Z,100521.27
2022-10-05T17:44:21.724Z,100524.70
2022-10-05T17:46:59.961Z,100522.46
2022-10-05T17:50:16.655Z,100521.33
2022-10-05T17:53:55.859Z,100520.13
2022-10-05T17:56:29.210Z,100514.09
2022-10-05T17:59:09.271Z,100511.07
2022-10-05T18:01:44.284Z,100508.40
2022-10-05T18:04:21.071Z,100504.30
2022-10-05T18:07:02.585Z,100504.21
2022-10-05T18:09:51.283Z,100512.69
2022-10-05T18:12:26.636Z,100510.81
2022-10-05T18:15:09.726Z,100513.27
2022-10-05T18:17:46.050Z,100515.54
2022-10-05T18:20:32.047Z,100514.23
2022-10-05T18:23:09.769Z,100505.93
2022-10-05T18:26:20.892Z,100514.64
2022-10-05T18:29:14.210Z,100499.86
2022-10-05T18:32:06.202Z,100508.65
2022-10-05T18:35:08.832Z,100504.56
2022-10-05T18:38:12.140Z,100504.65
2022-10-05T18:41:05.439Z,100505.33
2022-10-05T18:43:56.937Z,100499.11
2022-10-05T18:47:00.044Z,100503.81
2022-10-05T18:49:53.727Z,100499.11
2022-10-05T18:52:37.249Z,100501.46
2022-10-05T18:55:12.189Z,100498.89
2022-10-05T18:57:59.275Z,100502.45
2022-10-05T19:00:51.867Z,100503.39
2022-10-05T19:03:25.971Z,100501.29
2022-10-05T19:06:15.918Z,100501.82
2022-10-05T19:08:50.062Z,100498.94
2022-10-05T19:11:40.082Z,100499.00
2022-10-05T19:14:45.448Z,100502.34
2022-10-05T19:17:46.465Z,100501.30
2022-10-05T19:20:25.655Z,100500.13
2022-10-05T19:23:30.444Z,100499.45
2022-10-05T19:26:07.914Z,100500.76
2022-10-05T19:29:09.350Z,100500.69
2022-10-05T19:31:48.373Z,100501.17
2022-10-05T19:34:35.606Z,100502.16
2022-10-05T19:37:34.862Z,100500.71
2022-10-05T19:40:21.290Z,100501.07
2022-10-05T19:43:08.375Z,100505.49
2022-10-05T19:45:45.657Z,100503.27
2022-10-05T19:48:40.908Z,100506.94
2022-10-05T19:51:34.305Z,100505.33
2022-10-05T19:54:12.574Z,100503.17
2022-10-05T19:56:50.358Z,100506.61
2022-10-05T19:59:22.108Z,100502.96
2022-10-05T20:01:53.505Z,100504.44
2022-10-05T20:04:35.565Z,100508.66
2022-10-05T20:07:04.873Z,100504.65
2022-10-05T20:09:52.910Z,100509.64
2022-10-05T20:12:23.170Z,100511.52
2022-10-05T20:15:37.573Z,100516.70
2022-10-05T20:19:15.125Z,100522.48
2022-10-05T20:21:56.810Z,100523.48
2022-10-05T20:24:27.667Z,100525.85
2022-10-05T20:27:13.846Z,100528.42
2022-10-05T20:29:44.978Z,100532.54
2022-10-05T20:32:18.077Z,100534.86
2022-10-05T20:34:47.894Z,100536.88
2022-10-05T20:37:18.462Z,100536.86
2022-10-05T20:39:48.098Z,100544.30
2022-10-05T20:42:16.434Z,100553.41
2022-10-05T20:44:44.785Z,100552.91
2022-10-05T20:47:13.895Z,100558.04
2022-10-05T20:49:42.308Z,100556.79
2022-10-05T20:52:15.184Z,100554.14
2022-10-05T20:54:43.763Z,100552.48
2022-10-05T20:57:13.470Z,100550.97
2022-10-05T20:59:41.591Z,100550.57
2022-10-05T21:02:10.690Z,100552.33
2022-10-05T21:04:41.499Z,100547.61
2022-10-05T21:07:10.203Z,100551.46
2022-10-05T21:09:39.560Z,100565.02
2022-10-05T21:12:07.881Z,100561.65
2022-10-05T21:14:37.907Z,100565.23
2022-10-05T21:17:06.841Z,100567.32
2022-10-05T21:19:39.577Z,100568.85
2022-10-05T21:22:09.281Z,100574.48
2022-10-05T21:24:39.395Z,100577.08
2022-10-05T21:27:10.252Z,100581.94
2022-10-05T21:29:41.079Z,100583.93
2022-10-05T21:32:11.745Z,100584.51
2022-10-05T21:34:41.424Z,100588.94
2022-10-05T21:37:09.648Z,100597.86
2022-10-05T21:39:37.740Z,100600.45
2022-10-05T21:42:06.154Z,100602.27
2022-10-05T21:44:34.245Z,100605.30
2022-10-05T21:47:02.500Z,100613.55
2022-10-05T21:49:31.216Z,100617.98
2022-10-05T21:52:01.293Z,100613.95
2022-10-05T21:54:29.692Z,100623.36
2022-10-05T21:56:58.901Z,100618.83
2022-10-05T21:59:29.660Z,100626.60
2022-10-05T22:01:57.791Z,100630.05
2022-10-05T22:04:26.120Z,100635.89
2022-10-05T22:06:55.556Z,100638.41
2022-10-05T22:09:23.708Z,100640.34
2022-10-05T22:11:51.832Z,100636.72
2022-10-05T22:14:19.939Z,100641.54
2022-10-05T22:16:48.167Z,100643.61
2022-10-05T22:19:19.479Z,100647.03
2022-10-05T22:21:47.714Z,100640.59
2022-10-05T22:24:15.845Z,100640.14
2022-10-05T22:26:46.488Z,100646.28
2022-10-05T22:29:16.267Z,100649.11
2022-10-05T22:31:48.878Z,100644.05
2022-10-05T22:34:18.015Z,100651.97
2022-10-05T22:36:47.600Z,100649.83
2022-10-05T22:39:16.416Z,100649.05
2022-10-05T22:41:44.749Z,100652.92
2022-10-05T22:44:13.067Z,100651.34
2022-10-05T22:46:41.236Z,100649.80
2022-10-05T22:49:09.656Z,100653.15
2022-10-05T22:51:37.770Z,100656.02
2022-10-05T22:54:06.117Z,100654.92
2022-10-05T22:56:34.516Z,100659.32
2022-10-05T22:59:02.570Z,100662.73
2022-10-05T23:01:30.669Z,100661.38
2022-10-05T23:03:58.913Z,100659.16
2022-10-05T23:06:27.142Z,100663.23
2022-10-05T23:08:55.271Z,100664.02
2022-10-05T23:11:26.302Z,100668.73
2022-10-05T23:13:56.973Z,100673.80
2022-10-05T23:16:27.550Z,100675.01
2022-10-05T23:18:56.158Z,100675.36
2022-10-05T23:21:27.189Z,100676.73
2022-10-05T23:23:55.912Z,100675.98
2022-10-05T23:26:25.063Z,100677.52
2022-10-05T23:28:53.501Z,100679.51
2022-10-05T23:31:25.321Z,100679.63
2022-10-05T23:33:53.887Z,100682.29
2022-10-05T23:36:24.177Z,100685.36
2022-10-05T23:38:52.634Z,100682.18
2022-10-05T23:41:21.058Z,100685.63
2022-10-05T23:43:49.555Z,100689.15
2022-10-05T23:46:18.179Z,100691.41
2022-10-05T23:48:46.299Z,100687.37
2022-10-05T23:51:15.615Z,100692.63
2022-10-05T23:53:44.048Z,100696.09
2022-10-05T23:56:13.081Z,100700.30
2022-10-05T23:58:41.175Z,100696.02
